Wytheville, Virginia
Current Conditions -  °F | °C
As of 11:55 AM on Monday 22 Dec 2014 (Local Time) from KMKJ Reporting Station
Haze Haze  
Wind Chill: 31°   Ceiling: 600
Heat Index: 37°   Visibility: 5mi
Dew Point: 34°   Wind: 8mph
Humidity: 86%   Direction: 90°E
Pressure: 30.09"   Gusts: NA
Location:  36.95°N, 81.08°W
Report Text: KMKJ 221655Z AUTO 09007KT 5SM BR OVC006 03/01 A3009 RMK AO2 T00300009
Loading
Personal Weather Stations






























Interactive Weather Map New forecast layout! Learn more

10-Day Weather Forecast

Advertisements
Track Severe Weather on mobile